createdAt,value
2023-04-25T00:00:15.022Z,8.48
2023-04-25T00:02:42.598Z,10.13
2023-04-25T00:05:10.228Z,9.38
2023-04-25T00:07:36.983Z,6.70
2023-04-25T00:10:04.269Z,7.70
2023-04-25T00:12:30.823Z,8.32
2023-04-25T00:15:00.993Z,10.52
2023-04-25T00:17:27.939Z,9.95
2023-04-25T00:19:54.651Z,10.32
2023-04-25T00:22:21.893Z,10.35
2023-04-25T00:24:48.502Z,13.48
2023-04-25T00:27:15.038Z,10.20
2023-04-25T00:29:41.614Z,7.70
2023-04-25T00:32:08.190Z,8.38
2023-04-25T00:34:34.760Z,8.20
2023-04-25T00:37:03.142Z,6.93
2023-04-25T00:39:29.793Z,7.18
2023-04-25T00:41:56.620Z,6.65
2023-04-25T00:44:23.478Z,7.53
2023-04-25T00:46:53.100Z,6.50
2023-04-25T00:49:19.674Z,10.02
2023-04-25T00:51:46.355Z,7.32
2023-04-25T00:54:16.428Z,10.52
2023-04-25T00:56:43.285Z,8.45
2023-04-25T00:59:10.875Z,7.45
2023-04-25T01:01:38.799Z,6.20
2023-04-25T01:04:05.830Z,7.90
2023-04-25T01:06:32.981Z,9.25
2023-04-25T01:09:00.501Z,6.80
2023-04-25T01:11:27.089Z,5.85
2023-04-25T01:13:53.735Z,14.13
2023-04-25T01:16:20.281Z,6.05
2023-04-25T01:18:47.742Z,7.60
2023-04-25T01:21:14.420Z,8.73
2023-04-25T01:23:42.315Z,8.90
2023-04-25T01:26:11.242Z,7.45
2023-04-25T01:28:38.431Z,6.60
2023-04-25T01:31:06.801Z,5.38
2023-04-25T01:33:33.703Z,7.47
2023-04-25T01:36:00.283Z,11.00
2023-04-25T01:38:27.006Z,7.13
2023-04-25T01:40:55.020Z,8.60
2023-04-25T01:43:21.674Z,8.07
2023-04-25T01:45:49.494Z,7.28
2023-04-25T01:48:16.330Z,9.18
2023-04-25T01:50:44.026Z,7.63
2023-04-25T01:53:12.156Z,9.52
2023-04-25T01:55:38.789Z,6.70
2023-04-25T01:58:10.340Z,8.40
2023-04-25T02:00:39.863Z,7.60
2023-04-25T02:03:07.464Z,10.00
2023-04-25T02:05:39.151Z,9.73
2023-04-25T02:08:10.366Z,8.57
2023-04-25T02:10:37.459Z,6.88
2023-04-25T02:13:05.418Z,6.40
2023-04-25T02:15:32.234Z,8.52
2023-04-25T02:17:59.046Z,9.10
2023-04-25T02:20:26.090Z,10.80
2023-04-25T02:22:53.038Z,9.05
2023-04-25T02:25:21.072Z,11.73
2023-04-25T02:27:48.856Z,8.00
2023-04-25T02:30:16.271Z,15.10
2023-04-25T02:32:42.823Z,14.32
2023-04-25T02:35:09.811Z,11.65
2023-04-25T02:37:38.238Z,9.98
2023-04-25T02:40:05.485Z,13.13
2023-04-25T02:42:32.213Z,11.52
2023-04-25T02:44:58.955Z,11.80
2023-04-25T02:47:25.592Z,9.30
2023-04-25T02:49:52.234Z,8.40
2023-04-25T02:52:18.788Z,7.93
2023-04-25T02:54:45.325Z,10.52
2023-04-25T02:57:11.926Z,10.45
2023-04-25T02:59:38.456Z,10.05
2023-04-25T03:02:05.015Z,11.18
2023-04-25T03:04:31.760Z,10.07
2023-04-25T03:06:58.339Z,8.15
2023-04-25T03:09:24.912Z,8.57
2023-04-25T03:11:51.499Z,8.60
2023-04-25T03:14:18.044Z,8.80
2023-04-25T03:16:44.613Z,10.50
2023-04-25T03:19:11.237Z,10.15
2023-04-25T03:21:37.902Z,9.38
2023-04-25T03:24:06.878Z,11.73
2023-04-25T03:26:33.473Z,8.27
2023-04-25T03:29:00.004Z,10.30
2023-04-25T03:31:26.929Z,12.30
2023-04-25T03:33:53.680Z,11.13
2023-04-25T03:36:20.436Z,12.18
2023-04-25T03:38:47.519Z,12.60
2023-04-25T03:41:14.034Z,13.57
2023-04-25T03:43:40.648Z,9.48
2023-04-25T03:46:07.233Z,11.27
2023-04-25T03:48:33.814Z,13.35
2023-04-25T03:51:00.387Z,11.43
2023-04-25T03:53:27.054Z,12.50
2023-04-25T03:55:53.620Z,14.73
2023-04-25T03:58:20.264Z,12.93
2023-04-25T04:00:46.949Z,11.40
2023-04-25T04:03:13.737Z,9.90
2023-04-25T04:05:41.677Z,11.20
2023-04-25T04:08:08.386Z,9.60
2023-04-25T04:10:34.974Z,10.68
2023-04-25T04:13:01.492Z,11.95
2023-04-25T04:15:28.304Z,9.73
2023-04-25T04:17:55.860Z,10.45
2023-04-25T04:20:22.609Z,8.05
2023-04-25T04:22:49.208Z,9.30
2023-04-25T04:25:15.896Z,9.68
2023-04-25T04:27:42.539Z,14.40
2023-04-25T04:30:09.522Z,8.80
2023-04-25T04:32:38.685Z,8.88
2023-04-25T04:35:07.574Z,8.25
2023-04-25T04:37:34.578Z,7.28
2023-04-25T04:40:06.811Z,9.88
2023-04-25T04:42:33.627Z,8.57
2023-04-25T04:45:02.632Z,12.50
2023-04-25T04:47:32.191Z,9.93
2023-04-25T04:49:58.987Z,9.02
2023-04-25T04:52:25.659Z,9.45
2023-04-25T04:54:52.190Z,8.40
2023-04-25T04:57:18.786Z,9.07
2023-04-25T04:59:45.513Z,9.10
2023-04-25T05:02:12.086Z,7.13
2023-04-25T05:04:38.848Z,5.78
2023-04-25T05:07:05.491Z,6.75
2023-04-25T05:09:32.059Z,5.90
2023-04-25T05:11:58.624Z,5.55
2023-04-25T05:14:25.227Z,6.57
2023-04-25T05:16:51.841Z,5.78
2023-04-25T05:19:18.572Z,5.85
2023-04-25T05:21:45.100Z,5.88
2023-04-25T05:24:11.768Z,7.38
2023-04-25T05:26:38.769Z,6.95
2023-04-25T05:29:06.537Z,6.03
2023-04-25T05:31:33.569Z,4.78
2023-04-25T05:34:00.343Z,5.72
2023-04-25T05:39:11.635Z,5.93
2023-04-25T05:41:38.187Z,5.72
2023-04-25T05:44:04.727Z,6.28
2023-04-25T05:46:31.332Z,7.20
2023-04-25T05:48:57.969Z,6.35
2023-04-25T05:51:24.621Z,4.97
2023-04-25T05:53:51.583Z,6.82
2023-04-25T05:56:18.477Z,5.80
2023-04-25T05:58:45.297Z,6.40
2023-04-25T06:01:11.918Z,6.22
2023-04-25T06:03:39.516Z,7.57
2023-04-25T06:06:06.709Z,7.15
2023-04-25T06:08:33.402Z,7.00
2023-04-25T06:10:59.942Z,8.10
2023-04-25T06:13:26.573Z,7.60
2023-04-25T06:15:53.157Z,7.22
2023-04-25T06:18:20.345Z,6.78
2023-04-25T06:20:46.937Z,8.75
2023-04-25T06:23:13.816Z,10.05
2023-04-25T06:25:40.482Z,7.43
2023-04-25T06:28:07.014Z,5.78
2023-04-25T06:30:33.572Z,6.57
2023-04-25T06:33:00.212Z,8.95
2023-04-25T06:35:26.788Z,7.03
2023-04-25T06:37:53.628Z,6.93
2023-04-25T06:40:20.339Z,7.40
2023-04-25T06:42:46.869Z,7.75
2023-04-25T06:45:13.448Z,5.82
2023-04-25T06:47:40.022Z,6.75
2023-04-25T06:50:07.161Z,6.15
2023-04-25T06:52:34.079Z,7.25
2023-04-25T06:55:00.681Z,5.03
2023-04-25T06:57:27.341Z,8.57
2023-04-25T06:59:53.852Z,5.40
2023-04-25T07:02:22.197Z,4.93
2023-04-25T07:04:49.414Z,4.80
2023-04-25T07:07:18.193Z,6.85
2023-04-25T07:09:44.807Z,6.28
2023-04-25T07:12:11.347Z,5.53
2023-04-25T07:14:37.948Z,4.00
2023-04-25T07:17:04.703Z,5.35
2023-04-25T07:19:31.301Z,4.70
2023-04-25T07:21:57.834Z,5.95
2023-04-25T07:24:24.461Z,5.15
2023-04-25T07:26:51.190Z,3.72
2023-04-25T07:29:18.097Z,5.22
2023-04-25T07:31:44.777Z,5.57
2023-04-25T07:34:11.367Z,5.95
2023-04-25T07:36:37.915Z,4.22
2023-04-25T07:39:04.592Z,5.95
2023-04-25T07:41:31.323Z,5.15
2023-04-25T07:43:57.869Z,5.25
2023-04-25T07:46:24.625Z,4.97
2023-04-25T07:48:51.476Z,4.07
2023-04-25T07:51:20.843Z,4.75
2023-04-25T07:53:49.537Z,5.13
2023-04-25T07:56:17.138Z,4.72
2023-04-25T07:58:43.835Z,6.35
2023-04-25T08:01:10.405Z,6.75
2023-04-25T08:03:37.238Z,6.75
2023-04-25T08:06:07.664Z,4.10
2023-04-25T08:08:34.866Z,8.25
2023-04-25T08:11:01.409Z,3.75
2023-04-25T08:13:27.927Z,4.50
2023-04-25T08:15:54.632Z,5.35
2023-04-25T08:18:21.595Z,8.45
2023-04-25T08:20:48.190Z,4.75
2023-04-25T08:23:15.354Z,4.85
2023-04-25T08:25:42.007Z,4.82
2023-04-25T08:28:08.514Z,5.72
2023-04-25T08:30:35.085Z,4.85
2023-04-25T08:33:01.675Z,4.70
2023-04-25T08:35:28.314Z,6.32
2023-04-25T08:37:54.929Z,5.30
2023-04-25T08:40:27.208Z,3.17
2023-04-25T08:42:55.407Z,4.93
2023-04-25T08:45:22.258Z,4.55
2023-04-25T08:47:49.831Z,2.72
2023-04-25T08:50:17.823Z,3.03
2023-04-25T08:52:47.134Z,1.50
2023-04-25T08:55:15.108Z,1.45
2023-04-25T08:57:45.760Z,4.43
2023-04-25T09:00:13.810Z,1.50
2023-04-25T09:02:41.160Z,2.17
2023-04-25T09:05:10.790Z,1.92
2023-04-25T09:07:37.453Z,1.73
2023-04-25T09:10:04.524Z,1.77
2023-04-25T09:12:31.784Z,10.38
2023-04-25T09:15:12.333Z,11.90
2023-04-25T09:17:42.508Z,11.13
2023-04-25T09:20:11.614Z,12.38
2023-04-25T09:22:38.773Z,15.98
2023-04-25T09:25:10.878Z,14.55
2023-04-25T09:30:04.351Z,14.10
2023-04-25T09:32:31.007Z,13.73
2023-04-25T09:34:58.516Z,18.38
2023-04-25T09:37:27.108Z,10.63
2023-04-25T09:39:57.866Z,12.00
2023-04-25T09:42:26.344Z,12.40
2023-04-25T09:44:54.672Z,14.75
2023-04-25T09:47:24.451Z,14.27
2023-04-25T09:49:52.586Z,15.55
2023-04-25T09:52:23.254Z,18.45
2023-04-25T09:57:25.996Z,19.33
2023-04-25T09:59:54.429Z,17.90
2023-04-25T10:02:23.359Z,20.15
2023-04-25T10:04:53.821Z,15.95
2023-04-25T10:07:22.371Z,18.77
2023-04-25T10:09:52.863Z,16.42
2023-04-25T10:12:19.462Z,20.17
2023-04-25T10:14:47.524Z,14.70
2023-04-25T10:17:15.125Z,16.23
2023-04-25T10:19:41.991Z,13.55
2023-04-25T10:22:15.749Z,18.40
2023-04-25T10:24:42.937Z,14.85
2023-04-25T10:27:09.895Z,13.75
2023-04-25T10:29:36.880Z,18.40
2023-04-25T10:32:03.706Z,13.70
2023-04-25T10:34:44.678Z,17.65
2023-04-25T10:37:12.312Z,19.25
2023-04-25T10:39:43.014Z,17.70
2023-04-25T10:42:09.680Z,18.92
2023-04-25T10:44:38.568Z,18.35
2023-04-25T10:47:09.158Z,20.38
2023-04-25T10:49:38.587Z,19.85
2023-04-25T10:52:21.359Z,16.23
2023-04-25T10:54:58.730Z,15.40
2023-04-25T10:57:42.502Z,23.65
2023-04-25T11:00:12.793Z,20.52
2023-04-25T11:02:44.242Z,21.90
2023-04-25T11:05:11.413Z,18.23
2023-04-25T11:08:07.550Z,18.25
2023-04-25T11:10:36.657Z,18.95
2023-04-25T11:13:03.493Z,17.58
2023-04-25T11:15:30.139Z,13.27
2023-04-25T11:17:56.882Z,18.92
2023-04-25T11:20:27.146Z,17.52
2023-04-25T11:22:54.173Z,17.20
2023-04-25T11:25:21.199Z,20.52
2023-04-25T11:27:52.321Z,13.75
2023-04-25T11:30:20.157Z,14.03
2023-04-25T11:32:46.999Z,15.77
2023-04-25T11:35:14.452Z,15.63
2023-04-25T11:37:42.041Z,20.08
2023-04-25T11:40:10.677Z,19.92
2023-04-25T11:42:45.368Z,19.67
2023-04-25T11:45:12.961Z,15.85
2023-04-25T11:47:39.563Z,20.27
2023-04-25T11:50:08.844Z,14.10
2023-04-25T11:52:42.643Z,13.63
2023-04-25T11:55:11.608Z,16.88
2023-04-25T11:57:42.664Z,16.10
2023-04-25T12:00:22.784Z,10.93
2023-04-25T12:02:54.249Z,12.25
2023-04-25T12:07:54.335Z,14.40
2023-04-25T12:10:21.451Z,8.50
2023-04-25T12:12:49.219Z,13.13
2023-04-25T12:15:20.455Z,7.50
2023-04-25T12:17:48.691Z,7.00
2023-04-25T12:20:18.287Z,7.68
2023-04-25T12:22:47.770Z,4.70
2023-04-25T12:25:43.177Z,6.43
2023-04-25T12:28:13.153Z,6.43
2023-04-25T12:30:53.366Z,6.35
2023-04-25T12:33:19.921Z,5.65
2023-04-25T12:35:46.687Z,9.93
2023-04-25T12:38:31.451Z,7.13
2023-04-25T12:40:59.258Z,5.15
2023-04-25T12:43:26.024Z,6.10
2023-04-25T12:45:54.281Z,6.93
2023-04-25T12:48:21.466Z,6.68
2023-04-25T12:50:50.205Z,6.30
2023-04-25T12:53:17.924Z,6.38
2023-04-25T12:55:47.002Z,10.48
2023-04-25T12:58:14.780Z,8.00
2023-04-25T13:00:41.357Z,5.63
2023-04-25T13:03:08.293Z,8.65
2023-04-25T13:05:35.054Z,7.07
2023-04-25T13:08:01.597Z,8.75
2023-04-25T13:10:28.124Z,7.47
2023-04-25T13:12:54.646Z,7.57
2023-04-25T13:15:21.494Z,5.53
2023-04-25T13:17:48.101Z,11.23
2023-04-25T13:20:15.975Z,11.18
2023-04-25T13:22:43.346Z,7.75
2023-04-25T13:25:10.047Z,9.25
2023-04-25T13:27:40.188Z,9.32
2023-04-25T13:30:10.534Z,8.85
2023-04-25T13:32:38.538Z,5.97
2023-04-25T13:35:09.155Z,10.07
2023-04-25T13:37:37.487Z,6.57
2023-04-25T13:40:07.385Z,6.03
2023-04-25T13:42:33.902Z,8.88
2023-04-25T13:45:00.460Z,6.07
2023-04-25T13:47:28.030Z,6.38
2023-04-25T13:49:55.458Z,9.68
2023-04-25T13:52:22.127Z,4.82
2023-04-25T13:54:48.646Z,8.00
2023-04-25T13:57:15.238Z,6.55
2023-04-25T13:59:41.925Z,7.70
2023-04-25T14:02:08.611Z,11.10
2023-04-25T14:04:35.223Z,8.90
2023-04-25T14:07:03.239Z,10.27
2023-04-25T14:09:30.528Z,7.70
2023-04-25T14:11:57.557Z,5.68
2023-04-25T14:14:24.903Z,6.88
2023-04-25T14:16:54.712Z,10.40
2023-04-25T14:19:22.400Z,5.32
2023-04-25T14:21:49.151Z,5.53
2023-04-25T14:24:15.867Z,4.45
2023-04-25T14:26:43.458Z,5.00
2023-04-25T14:29:12.655Z,5.25
2023-04-25T14:31:41.410Z,6.55
2023-04-25T14:34:08.305Z,5.30
2023-04-25T14:36:35.394Z,4.95
2023-04-25T14:39:02.110Z,8.55
2023-04-25T14:41:28.863Z,6.55
2023-04-25T14:43:56.672Z,7.35
2023-04-25T14:49:08.368Z,5.80
2023-04-25T14:51:34.939Z,6.32
2023-04-25T14:54:01.501Z,7.20
2023-04-25T14:56:28.076Z,7.28
2023-04-25T14:58:54.659Z,5.43
2023-04-25T15:01:21.916Z,6.07
2023-04-25T15:03:49.516Z,6.53
2023-04-25T15:06:16.239Z,7.70
2023-04-25T15:08:42.861Z,4.30
2023-04-25T15:11:09.536Z,7.78
2023-04-25T15:13:36.039Z,6.95
2023-04-25T15:16:02.647Z,7.38
2023-04-25T15:18:29.240Z,8.45
2023-04-25T15:20:56.069Z,6.03
2023-04-25T15:23:22.908Z,7.53
2023-04-25T15:25:51.699Z,6.65
2023-04-25T15:28:18.326Z,9.02
2023-04-25T15:30:45.038Z,7.75
2023-04-25T15:33:11.874Z,9.68
2023-04-25T15:35:38.517Z,10.65
2023-04-25T15:38:05.347Z,8.10
2023-04-25T15:40:32.135Z,5.15
2023-04-25T15:42:59.734Z,9.40
2023-04-25T15:45:26.981Z,7.18
2023-04-25T15:47:55.826Z,9.43
2023-04-25T15:50:23.361Z,7.97
2023-04-25T15:52:51.246Z,6.18
2023-04-25T15:55:19.629Z,6.88
2023-04-25T15:57:46.416Z,8.55
2023-04-25T16:00:15.171Z,7.38
2023-04-25T16:02:43.203Z,7.35
2023-04-25T16:05:11.491Z,9.00
2023-04-25T16:07:39.696Z,7.47
2023-04-25T16:10:06.679Z,7.18
2023-04-25T16:12:33.297Z,9.05
2023-04-25T16:14:59.869Z,6.40
2023-04-25T16:17:29.625Z,11.57
2023-04-25T16:19:56.973Z,8.52
2023-04-25T16:22:23.633Z,8.98
2023-04-25T16:24:50.826Z,7.80
2023-04-25T16:27:17.445Z,9.73
2023-04-25T16:29:44.078Z,8.00
2023-04-25T16:32:11.202Z,6.20
2023-04-25T16:34:37.771Z,9.00
2023-04-25T16:37:04.565Z,7.40
2023-04-25T16:39:31.101Z,8.25
2023-04-25T16:41:57.674Z,6.20
2023-04-25T16:44:24.211Z,8.10
2023-04-25T16:46:50.806Z,8.88
2023-04-25T16:49:17.437Z,4.63
2023-04-25T16:51:44.012Z,7.18
2023-04-25T16:54:10.601Z,5.07
2023-04-25T16:56:37.353Z,6.88
2023-04-25T16:59:03.895Z,8.38
2023-04-25T17:01:31.315Z,6.60
2023-04-25T17:03:58.183Z,7.80
2023-04-25T17:06:25.010Z,8.60
2023-04-25T17:08:51.973Z,5.80
2023-04-25T17:11:20.167Z,10.60
2023-04-25T17:13:46.820Z,11.68
2023-04-25T17:16:16.621Z,7.75
2023-04-25T17:18:44.146Z,9.77
2023-04-25T17:21:10.899Z,9.35
2023-04-25T17:23:37.669Z,9.93
2023-04-25T17:26:04.310Z,10.85
2023-04-25T17:28:31.102Z,11.38
2023-04-25T17:30:57.779Z,9.00
2023-04-25T17:33:27.115Z,11.57
2023-04-25T17:35:54.384Z,10.48
2023-04-25T17:38:21.656Z,7.93
2023-04-25T17:40:48.269Z,9.27
2023-04-25T17:43:14.801Z,7.78
2023-04-25T17:45:41.544Z,8.77
2023-04-25T17:48:08.522Z,8.18
2023-04-25T17:50:35.207Z,10.52
2023-04-25T17:53:05.580Z,7.28
2023-04-25T17:55:32.112Z,11.52
2023-04-25T17:57:58.650Z,8.68
2023-04-25T18:00:25.684Z,6.25
2023-04-25T18:02:52.732Z,8.20
2023-04-25T18:05:19.620Z,9.52
2023-04-25T18:07:46.301Z,8.82
2023-04-25T18:10:14.904Z,12.02
2023-04-25T18:12:41.590Z,8.07
2023-04-25T18:15:09.278Z,8.02
2023-04-25T18:17:45.790Z,7.00
2023-04-25T18:20:17.469Z,9.00
2023-04-25T18:22:45.350Z,8.60
2023-04-25T18:25:13.790Z,12.25
2023-04-25T18:27:41.729Z,9.65
2023-04-25T18:30:10.871Z,11.35
2023-04-25T18:32:38.171Z,11.35
2023-04-25T18:35:05.533Z,11.18
2023-04-25T18:37:32.115Z,10.10
2023-04-25T18:39:58.737Z,8.05
2023-04-25T18:42:25.350Z,12.60
2023-04-25T18:44:52.478Z,10.00
2023-04-25T18:47:19.008Z,13.13
2023-04-25T18:49:45.680Z,11.57
2023-04-25T18:52:15.069Z,11.18
2023-04-25T18:54:42.590Z,8.05
2023-04-25T18:57:09.538Z,9.40
2023-04-25T18:59:36.221Z,8.18
2023-04-25T19:02:04.448Z,12.13
2023-04-25T19:04:31.736Z,12.30
2023-04-25T19:06:58.360Z,9.85
2023-04-25T19:09:25.251Z,9.90
2023-04-25T19:11:52.006Z,8.35
2023-04-25T19:14:18.682Z,7.47
2023-04-25T19:16:45.561Z,14.65
2023-04-25T19:19:12.557Z,13.45
2023-04-25T19:21:39.178Z,10.52
2023-04-25T19:24:07.006Z,8.98
2023-04-25T19:26:33.916Z,11.02
2023-04-25T19:29:09.464Z,10.70
2023-04-25T19:31:37.703Z,8.35
2023-04-25T19:34:05.621Z,8.70
2023-04-25T19:36:32.446Z,11.00
2023-04-25T19:39:03.856Z,11.73
2023-04-25T19:41:31.897Z,10.50
2023-04-25T19:44:00.951Z,14.57
2023-04-25T19:46:27.591Z,13.30
2023-04-25T19:48:54.209Z,11.98
2023-04-25T19:51:21.070Z,8.70
2023-04-25T19:53:47.615Z,13.05
2023-04-25T19:56:14.231Z,8.13
2023-04-25T19:58:40.819Z,16.95
2023-04-25T20:01:07.651Z,10.15
2023-04-25T20:03:34.454Z,13.07
2023-04-25T20:06:01.109Z,8.38
2023-04-25T20:08:27.645Z,15.70
2023-04-25T20:10:54.181Z,13.90
2023-04-25T20:13:20.736Z,13.90
2023-04-25T20:15:47.331Z,11.25
2023-04-25T20:18:14.029Z,9.55
2023-04-25T20:20:40.595Z,11.95
2023-04-25T20:23:07.225Z,9.43
2023-04-25T20:25:33.760Z,18.27
2023-04-25T20:28:00.307Z,11.52
2023-04-25T20:30:26.925Z,11.35
2023-04-25T20:32:53.542Z,11.23
2023-04-25T20:35:22.685Z,11.05
2023-04-25T20:37:50.602Z,12.25
2023-04-25T20:40:17.197Z,13.27
2023-04-25T20:42:43.764Z,17.83
2023-04-25T20:45:13.500Z,21.02
2023-04-25T20:47:41.054Z,20.58
2023-04-25T20:50:08.295Z,30.33
2023-04-25T20:52:35.407Z,30.17
2023-04-25T20:55:02.046Z,24.77
2023-04-25T20:57:29.314Z,16.10
2023-04-25T20:59:57.352Z,15.25
2023-04-25T21:02:24.435Z,8.70
2023-04-25T21:04:51.852Z,13.55
2023-04-25T21:07:18.432Z,14.70
2023-04-25T21:09:45.696Z,10.07
2023-04-25T21:12:12.378Z,12.27
2023-04-25T21:14:38.983Z,15.55
2023-04-25T21:17:05.974Z,10.05
2023-04-25T21:19:33.111Z,19.98
2023-04-25T21:22:00.176Z,16.55
2023-04-25T21:24:27.381Z,15.43
2023-04-25T21:26:53.968Z,10.68
2023-04-25T21:29:20.545Z,25.10
2023-04-25T21:31:47.323Z,22.60
2023-04-25T21:34:13.850Z,11.50
2023-04-25T21:36:41.359Z,12.38
2023-04-25T21:39:08.074Z,11.05
2023-04-25T21:41:34.791Z,12.55
2023-04-25T21:44:01.326Z,14.25
2023-04-25T21:46:27.957Z,16.60
2023-04-25T21:48:54.920Z,20.00
2023-04-25T21:51:22.814Z,22.10
2023-04-25T21:53:49.388Z,28.52
2023-04-25T21:56:16.036Z,22.30
2023-04-25T21:58:42.642Z,15.57
2023-04-25T22:01:10.017Z,20.02
2023-04-25T22:03:36.741Z,18.90
2023-04-25T22:06:04.002Z,22.85
2023-04-25T22:08:30.633Z,29.50
2023-04-25T22:10:57.177Z,28.05
2023-04-25T22:13:23.886Z,33.22
2023-04-25T22:15:50.933Z,36.35
2023-04-25T22:18:18.201Z,27.15
2023-04-25T22:20:44.963Z,36.03
2023-04-25T22:23:12.164Z,39.00
2023-04-25T22:25:38.922Z,19.48
2023-04-25T22:28:05.647Z,18.45
2023-04-25T22:30:32.694Z,25.52
2023-04-25T22:32:59.443Z,25.98
2023-04-25T22:35:26.256Z,18.67
2023-04-25T22:37:53.107Z,18.98
2023-04-25T22:40:19.736Z,15.45
2023-04-25T22:42:46.722Z,21.92
2023-04-25T22:45:13.668Z,19.23
2023-04-25T22:47:40.677Z,14.75
2023-04-25T22:50:13.087Z,14.95
2023-04-25T22:52:40.578Z,12.65
2023-04-25T22:55:07.459Z,11.10
2023-04-25T22:57:38.329Z,12.98
2023-04-25T23:00:15.291Z,14.45
2023-04-25T23:02:46.176Z,15.32
2023-04-25T23:05:13.509Z,18.23
2023-04-25T23:07:44.711Z,15.18
2023-04-25T23:10:12.162Z,14.75
2023-04-25T23:12:40.122Z,13.68
2023-04-25T23:15:07.866Z,14.98
2023-04-25T23:17:35.206Z,14.55
2023-04-25T23:20:01.883Z,15.50
2023-04-25T23:22:28.425Z,12.32
2023-04-25T23:24:55.081Z,15.60
2023-04-25T23:27:21.653Z,13.45
2023-04-25T23:29:54.836Z,15.43
2023-04-25T23:32:22.386Z,12.98
2023-04-25T23:34:49.422Z,13.65
2023-04-25T23:37:16.126Z,11.30
2023-04-25T23:39:49.314Z,12.73
2023-04-25T23:42:16.246Z,12.32
2023-04-25T23:44:42.938Z,15.98
2023-04-25T23:47:09.895Z,12.25
2023-04-25T23:49:36.510Z,10.82
2023-04-25T23:52:05.058Z,9.90
2023-04-25T23:54:31.766Z,11.07
2023-04-25T23:56:58.308Z,10.20
2023-04-25T23:59:24.885Z,8.27
